LEAL METAR and TAF | Updated Today

LEAL METAR

Alicante International Airport

Observation time: 8 min. ago

LEAL 010700Z VRB02KT 9999 FEW025 17/10 Q1023 NOSIG

Need help? Read our tutorial on how to read METARs or read the parsed version below.

Alicante International Airport (LEAL) METAR

  • Weather conditions on Sat, 01 Oct 2022 07:00:00 +0000 (8 min. ago):
  • Present conditions: Dry
  • Clouds: A few at 762 meters
  • Visibility: Greater than 10 km
  • Wind: Variable at 2 knots
  • Temperature: 17 celsius
  • Dew point: 10 celsius
  • Pressure: 1023 millibars
  • Remarks: None


Useful to know...

LEAL TAF

Alicante International Airport

TAF LEAL 010500Z 0106/0206 32005KT 9999 FEW030 TX26/0112Z TN14/0106Z BECMG 0111/0114 16010KT BECMG 0118/0120 33006KT
Observation time: 2:08 hr. ago
Need help? Read our tutorial on how to read TAFs or read the parsed version below.

Parsed version of TAF for Alicante International Airport (LEAL)

  • From 01 October at 06:00 UTC, to day 02 of the month at 06:00 UTC
  • Clouds: A few at 914 meters
  • Visibility: Greater than 10 km
  • Wind: 320 degrees at 5
  • Expected to arise soon, from 01 October at 11:00 UTC, to day 01 of the month at 14:00 UTC
  • Wind: 160 degrees at 10
  • Expected to arise soon, from 01 October at 18:00 UTC, to day 01 of the month at 20:00 UTC
  • Wind: 330 degrees at 6